sensor_id;sensor_type;location;lat;lon;timestamp;P1;durP1;ratioP1;P2;durP2;ratioP2
32032;SDS011;31720;52.638;9.216;2022-08-05T00:00:56;11.23;;;3.90;;
32032;SDS011;31720;52.638;9.216;2022-08-05T00:03:57;8.93;;;4.00;;
32032;SDS011;31720;52.638;9.216;2022-08-05T00:06:59;12.05;;;3.72;;
32032;SDS011;31720;52.638;9.216;2022-08-05T00:10:02;8.68;;;4.13;;
32032;SDS011;31720;52.638;9.216;2022-08-05T00:13:03;7.95;;;3.80;;
32032;SDS011;31720;52.638;9.216;2022-08-05T00:16:05;10.77;;;4.32;;
32032;SDS011;31720;52.638;9.216;2022-08-05T00:19:08;11.25;;;4.05;;
32032;SDS011;31720;52.638;9.216;2022-08-05T00:22:10;11.10;;;4.25;;
32032;SDS011;31720;52.638;9.216;2022-08-05T00:25:12;11.90;;;4.13;;
32032;SDS011;31720;52.638;9.216;2022-08-05T00:28:14;9.35;;;4.25;;
32032;SDS011;31720;52.638;9.216;2022-08-05T00:31:16;7.93;;;4.05;;
32032;SDS011;31720;52.638;9.216;2022-08-05T00:34:18;10.32;;;4.53;;
32032;SDS011;31720;52.638;9.216;2022-08-05T00:37:19;12.38;;;4.40;;
32032;SDS011;31720;52.638;9.216;2022-08-05T00:40:23;10.40;;;4.32;;
32032;SDS011;31720;52.638;9.216;2022-08-05T00:43:26;11.77;;;3.85;;
32032;SDS011;31720;52.638;9.216;2022-08-05T00:46:28;12.15;;;4.00;;
32032;SDS011;31720;52.638;9.216;2022-08-05T00:49:29;12.63;;;3.92;;
32032;SDS011;31720;52.638;9.216;2022-08-05T00:52:30;11.32;;;4.00;;
32032;SDS011;31720;52.638;9.216;2022-08-05T00:55:33;8.82;;;3.22;;
32032;SDS011;31720;52.638;9.216;2022-08-05T00:58:35;6.15;;;3.55;;
32032;SDS011;31720;52.638;9.216;2022-08-05T01:01:36;13.90;;;4.60;;
32032;SDS011;31720;52.638;9.216;2022-08-05T01:04:39;5.80;;;3.03;;
32032;SDS011;31720;52.638;9.216;2022-08-05T01:07:41;7.10;;;3.53;;
32032;SDS011;31720;52.638;9.216;2022-08-05T01:10:45;8.35;;;3.15;;
32032;SDS011;31720;52.638;9.216;2022-08-05T01:13:54;7.77;;;3.67;;
32032;SDS011;31720;52.638;9.216;2022-08-05T01:17:02;5.07;;;3.13;;
32032;SDS011;31720;52.638;9.216;2022-08-05T01:23:36;8.13;;;2.80;;
32032;SDS011;31720;52.638;9.216;2022-08-05T01:26:52;8.48;;;2.67;;
32032;SDS011;31720;52.638;9.216;2022-08-05T01:30:02;8.10;;;3.30;;
32032;SDS011;31720;52.638;9.216;2022-08-05T01:33:06;9.88;;;3.75;;
32032;SDS011;31720;52.638;9.216;2022-08-05T01:36:10;7.35;;;3.72;;
32032;SDS011;31720;52.638;9.216;2022-08-05T01:39:15;11.05;;;3.72;;
32032;SDS011;31720;52.638;9.216;2022-08-05T01:42:18;5.35;;;3.03;;
32032;SDS011;31720;52.638;9.216;2022-08-05T01:45:21;8.00;;;3.55;;
32032;SDS011;31720;52.638;9.216;2022-08-05T01:48:25;8.05;;;3.08;;
32032;SDS011;31720;52.638;9.216;2022-08-05T01:51:30;10.15;;;3.47;;
32032;SDS011;31720;52.638;9.216;2022-08-05T01:54:36;6.97;;;3.33;;
32032;SDS011;31720;52.638;9.216;2022-08-05T01:57:42;5.65;;;3.08;;
32032;SDS011;31720;52.638;9.216;2022-08-05T02:00:49;9.45;;;3.05;;
32032;SDS011;31720;52.638;9.216;2022-08-05T02:03:51;8.70;;;3.65;;
32032;SDS011;31720;52.638;9.216;2022-08-05T02:06:55;7.25;;;2.97;;
32032;SDS011;31720;52.638;9.216;2022-08-05T02:09:58;9.80;;;3.65;;
32032;SDS011;31720;52.638;9.216;2022-08-05T02:13:00;7.60;;;2.88;;
32032;SDS011;31720;52.638;9.216;2022-08-05T02:16:12;5.23;;;3.20;;
32032;SDS011;31720;52.638;9.216;2022-08-05T02:19:19;7.18;;;3.30;;
32032;SDS011;31720;52.638;9.216;2022-08-05T02:22:31;6.38;;;3.17;;
32032;SDS011;31720;52.638;9.216;2022-08-05T02:25:39;8.10;;;3.55;;
32032;SDS011;31720;52.638;9.216;2022-08-05T02:28:43;6.28;;;3.10;;
32032;SDS011;31720;52.638;9.216;2022-08-05T02:31:49;14.25;;;3.45;;
32032;SDS011;31720;52.638;9.216;2022-08-05T02:34:53;5.68;;;3.22;;
32032;SDS011;31720;52.638;9.216;2022-08-05T02:37:56;4.90;;;2.72;;
32032;SDS011;31720;52.638;9.216;2022-08-05T02:40:59;9.80;;;3.70;;
32032;SDS011;31720;52.638;9.216;2022-08-05T02:44:02;7.78;;;3.83;;
32032;SDS011;31720;52.638;9.216;2022-08-05T02:47:09;10.57;;;4.45;;
32032;SDS011;31720;52.638;9.216;2022-08-05T02:50:12;8.63;;;2.85;;
32032;SDS011;31720;52.638;9.216;2022-08-05T02:53:14;4.53;;;2.88;;
32032;SDS011;31720;52.638;9.216;2022-08-05T02:56:17;6.72;;;3.60;;
32032;SDS011;31720;52.638;9.216;2022-08-05T02:59:19;8.07;;;3.75;;
32032;SDS011;31720;52.638;9.216;2022-08-05T03:02:27;7.32;;;3.03;;
32032;SDS011;31720;52.638;9.216;2022-08-05T03:05:31;5.63;;;3.13;;
32032;SDS011;31720;52.638;9.216;2022-08-05T03:08:33;8.40;;;3.42;;
32032;SDS011;31720;52.638;9.216;2022-08-05T03:11:35;12.90;;;4.00;;
32032;SDS011;31720;52.638;9.216;2022-08-05T03:14:37;7.97;;;3.60;;
32032;SDS011;31720;52.638;9.216;2022-08-05T03:17:39;5.65;;;3.00;;
32032;SDS011;31720;52.638;9.216;2022-08-05T03:20:41;14.07;;;3.78;;
32032;SDS011;31720;52.638;9.216;2022-08-05T03:23:42;6.50;;;3.17;;
32032;SDS011;31720;52.638;9.216;2022-08-05T03:26:44;8.25;;;3.33;;
32032;SDS011;31720;52.638;9.216;2022-08-05T03:29:46;7.88;;;2.97;;
32032;SDS011;31720;52.638;9.216;2022-08-05T03:32:49;5.10;;;2.70;;
32032;SDS011;31720;52.638;9.216;2022-08-05T03:35:50;4.40;;;2.67;;
32032;SDS011;31720;52.638;9.216;2022-08-05T03:38:52;6.03;;;3.20;;
32032;SDS011;31720;52.638;9.216;2022-08-05T03:41:53;6.63;;;3.13;;
32032;SDS011;31720;52.638;9.216;2022-08-05T03:44:55;7.93;;;3.00;;
32032;SDS011;31720;52.638;9.216;2022-08-05T03:47:57;5.93;;;2.25;;
32032;SDS011;31720;52.638;9.216;2022-08-05T03:51:00;5.38;;;2.47;;
32032;SDS011;31720;52.638;9.216;2022-08-05T03:54:07;4.35;;;2.35;;
32032;SDS011;31720;52.638;9.216;2022-08-05T03:57:14;5.65;;;2.60;;
32032;SDS011;31720;52.638;9.216;2022-08-05T04:00:18;3.95;;;1.98;;
32032;SDS011;31720;52.638;9.216;2022-08-05T04:03:26;3.92;;;2.22;;
32032;SDS011;31720;52.638;9.216;2022-08-05T04:06:30;3.15;;;2.05;;
32032;SDS011;31720;52.638;9.216;2022-08-05T04:09:33;2.55;;;1.92;;
32032;SDS011;31720;52.638;9.216;2022-08-05T04:12:35;4.05;;;1.88;;
32032;SDS011;31720;52.638;9.216;2022-08-05T04:15:37;3.95;;;2.25;;
32032;SDS011;31720;52.638;9.216;2022-08-05T04:18:42;5.35;;;2.50;;
32032;SDS011;31720;52.638;9.216;2022-08-05T04:21:45;3.03;;;1.90;;
32032;SDS011;31720;52.638;9.216;2022-08-05T04:24:46;5.03;;;2.17;;
32032;SDS011;31720;52.638;9.216;2022-08-05T04:27:48;3.47;;;2.10;;
32032;SDS011;31720;52.638;9.216;2022-08-05T04:30:49;5.55;;;1.50;;
32032;SDS011;31720;52.638;9.216;2022-08-05T04:33:52;2.30;;;1.33;;
32032;SDS011;31720;52.638;9.216;2022-08-05T04:36:53;4.60;;;1.67;;
32032;SDS011;31720;52.638;9.216;2022-08-05T04:39:55;2.85;;;1.58;;
32032;SDS011;31720;52.638;9.216;2022-08-05T04:42:56;2.83;;;1.90;;
32032;SDS011;31720;52.638;9.216;2022-08-05T04:45:58;4.20;;;1.88;;
32032;SDS011;31720;52.638;9.216;2022-08-05T04:49:00;3.65;;;1.58;;
32032;SDS011;31720;52.638;9.216;2022-08-05T04:52:02;5.72;;;1.98;;
32032;SDS011;31720;52.638;9.216;2022-08-05T04:55:04;6.13;;;1.50;;
32032;SDS011;31720;52.638;9.216;2022-08-05T04:58:06;4.75;;;1.35;;
32032;SDS011;31720;52.638;9.216;2022-08-05T05:01:09;4.68;;;2.08;;
32032;SDS011;31720;52.638;9.216;2022-08-05T05:04:11;1.92;;;1.40;;
32032;SDS011;31720;52.638;9.216;2022-08-05T05:07:13;6.50;;;1.67;;
32032;SDS011;31720;52.638;9.216;2022-08-05T05:10:15;1.90;;;1.42;;
32032;SDS011;31720;52.638;9.216;2022-08-05T05:13:16;2.95;;;1.65;;
32032;SDS011;31720;52.638;9.216;2022-08-05T05:16:18;3.05;;;1.33;;
32032;SDS011;31720;52.638;9.216;2022-08-05T05:19:21;4.18;;;1.80;;
32032;SDS011;31720;52.638;9.216;2022-08-05T05:22:22;5.53;;;1.75;;
32032;SDS011;31720;52.638;9.216;2022-08-05T05:25:24;5.25;;;1.75;;
32032;SDS011;31720;52.638;9.216;2022-08-05T05:28:25;4.80;;;1.92;;
32032;SDS011;31720;52.638;9.216;2022-08-05T05:31:27;2.75;;;1.88;;
32032;SDS011;31720;52.638;9.216;2022-08-05T05:34:29;3.10;;;1.70;;
32032;SDS011;31720;52.638;9.216;2022-08-05T05:37:31;3.90;;;1.75;;
32032;SDS011;31720;52.638;9.216;2022-08-05T05:40:32;4.00;;;2.08;;
32032;SDS011;31720;52.638;9.216;2022-08-05T05:43:34;6.47;;;2.15;;
32032;SDS011;31720;52.638;9.216;2022-08-05T05:46:35;3.95;;;2.15;;
32032;SDS011;31720;52.638;9.216;2022-08-05T05:49:37;5.32;;;2.60;;
32032;SDS011;31720;52.638;9.216;2022-08-05T05:52:39;3.03;;;2.08;;
32032;SDS011;31720;52.638;9.216;2022-08-05T05:55:40;4.63;;;2.17;;
32032;SDS011;31720;52.638;9.216;2022-08-05T05:58:42;3.85;;;2.10;;
32032;SDS011;31720;52.638;9.216;2022-08-05T06:01:43;3.53;;;2.08;;
32032;SDS011;31720;52.638;9.216;2022-08-05T06:04:46;5.35;;;2.28;;
32032;SDS011;31720;52.638;9.216;2022-08-05T06:07:47;2.88;;;2.15;;
32032;SDS011;31720;52.638;9.216;2022-08-05T06:10:49;3.25;;;1.77;;
32032;SDS011;31720;52.638;9.216;2022-08-05T06:13:50;6.63;;;1.98;;
32032;SDS011;31720;52.638;9.216;2022-08-05T06:16:52;7.55;;;2.10;;
32032;SDS011;31720;52.638;9.216;2022-08-05T06:19:54;7.32;;;2.40;;
32032;SDS011;31720;52.638;9.216;2022-08-05T06:22:57;3.35;;;2.35;;
32032;SDS011;31720;52.638;9.216;2022-08-05T06:25:58;5.68;;;2.15;;
32032;SDS011;31720;52.638;9.216;2022-08-05T06:29:00;2.88;;;2.35;;
32032;SDS011;31720;52.638;9.216;2022-08-05T06:32:01;8.23;;;2.90;;
32032;SDS011;31720;52.638;9.216;2022-08-05T06:35:04;4.38;;;2.78;;
32032;SDS011;31720;52.638;9.216;2022-08-05T06:38:07;6.63;;;2.42;;
32032;SDS011;31720;52.638;9.216;2022-08-05T06:41:08;3.25;;;2.45;;
32032;SDS011;31720;52.638;9.216;2022-08-05T06:44:09;4.28;;;2.25;;
32032;SDS011;31720;52.638;9.216;2022-08-05T06:47:11;4.20;;;2.63;;
32032;SDS011;31720;52.638;9.216;2022-08-05T06:50:13;7.72;;;2.38;;
32032;SDS011;31720;52.638;9.216;2022-08-05T06:53:15;2.67;;;2.15;;
32032;SDS011;31720;52.638;9.216;2022-08-05T06:56:16;5.47;;;2.50;;
32032;SDS011;31720;52.638;9.216;2022-08-05T06:59:18;5.30;;;2.40;;
32032;SDS011;31720;52.638;9.216;2022-08-05T07:02:20;8.55;;;2.28;;
32032;SDS011;31720;52.638;9.216;2022-08-05T07:05:22;4.43;;;2.25;;
32032;SDS011;31720;52.638;9.216;2022-08-05T07:08:24;6.35;;;2.17;;
32032;SDS011;31720;52.638;9.216;2022-08-05T07:11:26;3.63;;;2.20;;
32032;SDS011;31720;52.638;9.216;2022-08-05T07:14:29;2.65;;;1.92;;
32032;SDS011;31720;52.638;9.216;2022-08-05T07:17:48;4.15;;;2.50;;
32032;SDS011;31720;52.638;9.216;2022-08-05T07:20:51;5.03;;;2.70;;
32032;SDS011;31720;52.638;9.216;2022-08-05T07:23:52;7.85;;;2.67;;
32032;SDS011;31720;52.638;9.216;2022-08-05T07:26:54;5.70;;;2.75;;
32032;SDS011;31720;52.638;9.216;2022-08-05T07:29:55;4.43;;;2.22;;
32032;SDS011;31720;52.638;9.216;2022-08-05T07:32:57;5.72;;;2.63;;
32032;SDS011;31720;52.638;9.216;2022-08-05T07:36:00;4.88;;;2.38;;
32032;SDS011;31720;52.638;9.216;2022-08-05T07:39:02;3.95;;;2.00;;
32032;SDS011;31720;52.638;9.216;2022-08-05T07:42:05;3.40;;;2.20;;
32032;SDS011;31720;52.638;9.216;2022-08-05T07:45:07;6.75;;;2.03;;
32032;SDS011;31720;52.638;9.216;2022-08-05T07:48:09;4.20;;;2.33;;
32032;SDS011;31720;52.638;9.216;2022-08-05T07:51:12;2.85;;;2.15;;
32032;SDS011;31720;52.638;9.216;2022-08-05T07:54:14;5.10;;;1.95;;
32032;SDS011;31720;52.638;9.216;2022-08-05T07:57:16;4.03;;;2.15;;
32032;SDS011;31720;52.638;9.216;2022-08-05T08:00:17;6.97;;;2.95;;
32032;SDS011;31720;52.638;9.216;2022-08-05T08:03:19;5.47;;;3.03;;
32032;SDS011;31720;52.638;9.216;2022-08-05T08:06:21;2.72;;;2.13;;
32032;SDS011;31720;52.638;9.216;2022-08-05T08:09:23;3.22;;;2.30;;
32032;SDS011;31720;52.638;9.216;2022-08-05T08:12:24;3.45;;;2.10;;
32032;SDS011;31720;52.638;9.216;2022-08-05T08:15:26;3.15;;;2.22;;
32032;SDS011;31720;52.638;9.216;2022-08-05T08:18:27;7.53;;;2.88;;
32032;SDS011;31720;52.638;9.216;2022-08-05T08:21:30;6.63;;;2.65;;
32032;SDS011;31720;52.638;9.216;2022-08-05T08:24:31;5.13;;;2.25;;
32032;SDS011;31720;52.638;9.216;2022-08-05T08:27:33;3.45;;;2.38;;
32032;SDS011;31720;52.638;9.216;2022-08-05T08:30:34;3.65;;;2.30;;
32032;SDS011;31720;52.638;9.216;2022-08-05T08:33:36;4.07;;;2.25;;
32032;SDS011;31720;52.638;9.216;2022-08-05T08:36:38;3.88;;;2.72;;
32032;SDS011;31720;52.638;9.216;2022-08-05T08:39:40;6.38;;;2.40;;
32032;SDS011;31720;52.638;9.216;2022-08-05T08:42:43;6.43;;;3.05;;
32032;SDS011;31720;52.638;9.216;2022-08-05T08:45:48;5.88;;;2.40;;
32032;SDS011;31720;52.638;9.216;2022-08-05T08:48:53;6.75;;;2.72;;
32032;SDS011;31720;52.638;9.216;2022-08-05T08:51:57;6.30;;;2.40;;
32032;SDS011;31720;52.638;9.216;2022-08-05T08:55:01;8.80;;;2.88;;
32032;SDS011;31720;52.638;9.216;2022-08-05T08:58:04;4.80;;;3.20;;
32032;SDS011;31720;52.638;9.216;2022-08-05T09:01:06;7.07;;;3.03;;
32032;SDS011;31720;52.638;9.216;2022-08-05T09:04:08;4.82;;;2.85;;
32032;SDS011;31720;52.638;9.216;2022-08-05T09:07:11;6.85;;;3.83;;
32032;SDS011;31720;52.638;9.216;2022-08-05T09:10:13;4.40;;;3.25;;
32032;SDS011;31720;52.638;9.216;2022-08-05T09:13:15;4.57;;;2.53;;
32032;SDS011;31720;52.638;9.216;2022-08-05T09:16:16;8.77;;;3.60;;
32032;SDS011;31720;52.638;9.216;2022-08-05T09:19:18;7.00;;;2.70;;
32032;SDS011;31720;52.638;9.216;2022-08-05T09:22:21;4.05;;;2.47;;
32032;SDS011;31720;52.638;9.216;2022-08-05T09:25:22;7.32;;;3.25;;
32032;SDS011;31720;52.638;9.216;2022-08-05T09:28:23;4.53;;;2.35;;
32032;SDS011;31720;52.638;9.216;2022-08-05T09:31:27;4.30;;;1.90;;
32032;SDS011;31720;52.638;9.216;2022-08-05T09:34:29;4.93;;;2.88;;
32032;SDS011;31720;52.638;9.216;2022-08-05T09:37:58;3.22;;;1.98;;
32032;SDS011;31720;52.638;9.216;2022-08-05T09:41:03;4.35;;;2.45;;
32032;SDS011;31720;52.638;9.216;2022-08-05T09:44:06;3.70;;;2.08;;
32032;SDS011;31720;52.638;9.216;2022-08-05T09:47:08;6.45;;;3.10;;
32032;SDS011;31720;52.638;9.216;2022-08-05T09:50:11;8.15;;;2.85;;
32032;SDS011;31720;52.638;9.216;2022-08-05T09:53:13;3.67;;;2.33;;
32032;SDS011;31720;52.638;9.216;2022-08-05T09:56:22;3.15;;;2.10;;
32032;SDS011;31720;52.638;9.216;2022-08-05T09:59:25;6.78;;;2.88;;
32032;SDS011;31720;52.638;9.216;2022-08-05T10:02:29;5.60;;;2.55;;
32032;SDS011;31720;52.638;9.216;2022-08-05T10:05:31;4.72;;;2.70;;
32032;SDS011;31720;52.638;9.216;2022-08-05T10:08:34;5.25;;;3.08;;
32032;SDS011;31720;52.638;9.216;2022-08-05T10:11:36;4.70;;;2.70;;
32032;SDS011;31720;52.638;9.216;2022-08-05T10:14:39;5.72;;;2.42;;
32032;SDS011;31720;52.638;9.216;2022-08-05T10:17:40;3.88;;;2.22;;
32032;SDS011;31720;52.638;9.216;2022-08-05T10:20:43;6.82;;;2.88;;
32032;SDS011;31720;52.638;9.216;2022-08-05T10:23:48;3.65;;;2.67;;
32032;SDS011;31720;52.638;9.216;2022-08-05T10:26:50;7.15;;;2.67;;
32032;SDS011;31720;52.638;9.216;2022-08-05T10:29:53;3.78;;;2.70;;
32032;SDS011;31720;52.638;9.216;2022-08-05T10:32:56;4.85;;;2.75;;
32032;SDS011;31720;52.638;9.216;2022-08-05T10:35:59;5.82;;;3.50;;
32032;SDS011;31720;52.638;9.216;2022-08-05T10:39:04;9.55;;;3.08;;
32032;SDS011;31720;52.638;9.216;2022-08-05T10:42:09;5.18;;;3.83;;
32032;SDS011;31720;52.638;9.216;2022-08-05T10:45:16;6.75;;;3.40;;
32032;SDS011;31720;52.638;9.216;2022-08-05T10:48:29;5.93;;;3.67;;
32032;SDS011;31720;52.638;9.216;2022-08-05T10:51:40;5.22;;;3.10;;
32032;SDS011;31720;52.638;9.216;2022-08-05T10:54:48;4.53;;;3.38;;
32032;SDS011;31720;52.638;9.216;2022-08-05T10:58:06;7.50;;;3.67;;
32032;SDS011;31720;52.638;9.216;2022-08-05T11:01:09;6.20;;;3.90;;
32032;SDS011;31720;52.638;9.216;2022-08-05T11:04:11;5.97;;;3.67;;
32032;SDS011;31720;52.638;9.216;2022-08-05T11:07:14;7.50;;;4.22;;
32032;SDS011;31720;52.638;9.216;2022-08-05T11:10:22;5.30;;;3.60;;
32032;SDS011;31720;52.638;9.216;2022-08-05T11:13:37;4.95;;;2.90;;
32032;SDS011;31720;52.638;9.216;2022-08-05T11:16:40;2.80;;;2.50;;
32032;SDS011;31720;52.638;9.216;2022-08-05T11:19:43;2.05;;;1.70;;
32032;SDS011;31720;52.638;9.216;2022-08-05T11:22:47;2.13;;;1.60;;
32032;SDS011;31720;52.638;9.216;2022-08-05T11:26:00;2.97;;;2.00;;
32032;SDS011;31720;52.638;9.216;2022-08-05T11:29:03;2.65;;;1.83;;
32032;SDS011;31720;52.638;9.216;2022-08-05T11:32:24;3.67;;;1.70;;
32032;SDS011;31720;52.638;9.216;2022-08-05T11:38:54;1.55;;;1.35;;
32032;SDS011;31720;52.638;9.216;2022-08-05T11:41:57;1.80;;;1.17;;
32032;SDS011;31720;52.638;9.216;2022-08-05T11:45:00;4.10;;;1.63;;
32032;SDS011;31720;52.638;9.216;2022-08-05T11:48:06;1.63;;;1.15;;
32032;SDS011;31720;52.638;9.216;2022-08-05T11:51:08;3.80;;;1.50;;
32032;SDS011;31720;52.638;9.216;2022-08-05T11:54:10;1.65;;;1.20;;
32032;SDS011;31720;52.638;9.216;2022-08-05T11:57:13;1.92;;;1.15;;
32032;SDS011;31720;52.638;9.216;2022-08-05T12:00:24;1.50;;;1.15;;
32032;SDS011;31720;52.638;9.216;2022-08-05T12:03:26;3.85;;;2.13;;
32032;SDS011;31720;52.638;9.216;2022-08-05T12:06:28;1.25;;;0.80;;
32032;SDS011;31720;52.638;9.216;2022-08-05T12:09:35;0.90;;;0.82;;
32032;SDS011;31720;52.638;9.216;2022-08-05T12:12:40;1.20;;;0.90;;
32032;SDS011;31720;52.638;9.216;2022-08-05T12:15:42;1.20;;;1.10;;
32032;SDS011;31720;52.638;9.216;2022-08-05T12:18:43;3.08;;;1.10;;
32032;SDS011;31720;52.638;9.216;2022-08-05T12:21:46;0.95;;;0.88;;
32032;SDS011;31720;52.638;9.216;2022-08-05T12:24:49;1.45;;;1.20;;
32032;SDS011;31720;52.638;9.216;2022-08-05T12:27:53;3.65;;;1.00;;
32032;SDS011;31720;52.638;9.216;2022-08-05T12:30:54;1.83;;;1.23;;
32032;SDS011;31720;52.638;9.216;2022-08-05T12:33:56;1.15;;;1.05;;
32032;SDS011;31720;52.638;9.216;2022-08-05T12:36:59;1.73;;;1.30;;
32032;SDS011;31720;52.638;9.216;2022-08-05T12:40:09;2.25;;;1.48;;
32032;SDS011;31720;52.638;9.216;2022-08-05T12:43:12;3.15;;;1.50;;
32032;SDS011;31720;52.638;9.216;2022-08-05T12:46:18;2.55;;;1.42;;
32032;SDS011;31720;52.638;9.216;2022-08-05T12:49:20;1.13;;;0.85;;
32032;SDS011;31720;52.638;9.216;2022-08-05T12:52:22;2.13;;;1.50;;
32032;SDS011;31720;52.638;9.216;2022-08-05T12:55:24;2.30;;;1.25;;
32032;SDS011;31720;52.638;9.216;2022-08-05T12:58:28;1.85;;;1.10;;
32032;SDS011;31720;52.638;9.216;2022-08-05T13:01:29;1.33;;;1.05;;
32032;SDS011;31720;52.638;9.216;2022-08-05T13:04:32;1.45;;;1.08;;
32032;SDS011;31720;52.638;9.216;2022-08-05T13:07:34;1.95;;;1.23;;
32032;SDS011;31720;52.638;9.216;2022-08-05T13:10:41;1.40;;;1.15;;
32032;SDS011;31720;52.638;9.216;2022-08-05T13:13:44;1.38;;;0.95;;
32032;SDS011;31720;52.638;9.216;2022-08-05T13:16:51;2.83;;;0.90;;
32032;SDS011;31720;52.638;9.216;2022-08-05T13:20:02;1.98;;;0.95;;
32032;SDS011;31720;52.638;9.216;2022-08-05T13:23:06;1.90;;;0.90;;
32032;SDS011;31720;52.638;9.216;2022-08-05T13:26:07;1.10;;;1.00;;
32032;SDS011;31720;52.638;9.216;2022-08-05T13:29:10;3.75;;;1.20;;
32032;SDS011;31720;52.638;9.216;2022-08-05T13:32:11;1.40;;;0.90;;
32032;SDS011;31720;52.638;9.216;2022-08-05T13:35:13;1.00;;;0.77;;
32032;SDS011;31720;52.638;9.216;2022-08-05T13:38:14;5.95;;;1.38;;
32032;SDS011;31720;52.638;9.216;2022-08-05T13:41:16;1.00;;;0.90;;
32032;SDS011;31720;52.638;9.216;2022-08-05T13:44:18;2.28;;;0.90;;
32032;SDS011;31720;52.638;9.216;2022-08-05T13:47:20;2.75;;;1.25;;
32032;SDS011;31720;52.638;9.216;2022-08-05T13:50:22;1.88;;;1.30;;
32032;SDS011;31720;52.638;9.216;2022-08-05T13:53:24;2.90;;;1.10;;
32032;SDS011;31720;52.638;9.216;2022-08-05T13:56:25;1.70;;;1.58;;
32032;SDS011;31720;52.638;9.216;2022-08-05T13:59:28;2.90;;;1.08;;
32032;SDS011;31720;52.638;9.216;2022-08-05T14:02:29;1.38;;;1.05;;
32032;SDS011;31720;52.638;9.216;2022-08-05T14:05:31;2.08;;;0.85;;
32032;SDS011;31720;52.638;9.216;2022-08-05T14:08:32;1.30;;;1.13;;
32032;SDS011;31720;52.638;9.216;2022-08-05T14:11:33;2.65;;;1.58;;
32032;SDS011;31720;52.638;9.216;2022-08-05T14:14:39;2.10;;;1.20;;
32032;SDS011;31720;52.638;9.216;2022-08-05T14:17:40;1.45;;;1.35;;
32032;SDS011;31720;52.638;9.216;2022-08-05T14:20:42;3.20;;;1.65;;
32032;SDS011;31720;52.638;9.216;2022-08-05T14:23:43;1.50;;;1.08;;
32032;SDS011;31720;52.638;9.216;2022-08-05T14:26:45;2.78;;;1.30;;
32032;SDS011;31720;52.638;9.216;2022-08-05T14:29:47;4.88;;;1.60;;
32032;SDS011;31720;52.638;9.216;2022-08-05T14:32:49;3.13;;;1.08;;
32032;SDS011;31720;52.638;9.216;2022-08-05T14:35:50;5.22;;;1.27;;
32032;SDS011;31720;52.638;9.216;2022-08-05T14:38:52;1.50;;;1.10;;
32032;SDS011;31720;52.638;9.216;2022-08-05T14:41:53;1.80;;;1.23;;
32032;SDS011;31720;52.638;9.216;2022-08-05T14:44:56;1.25;;;1.15;;
32032;SDS011;31720;52.638;9.216;2022-08-05T14:47:57;1.50;;;1.23;;
32032;SDS011;31720;52.638;9.216;2022-08-05T14:50:59;1.38;;;1.27;;
32032;SDS011;31720;52.638;9.216;2022-08-05T14:54:00;2.35;;;1.50;;
32032;SDS011;31720;52.638;9.216;2022-08-05T14:57:01;6.82;;;1.38;;
32032;SDS011;31720;52.638;9.216;2022-08-05T15:00:05;4.97;;;1.25;;
32032;SDS011;31720;52.638;9.216;2022-08-05T15:03:07;1.40;;;1.30;;
32032;SDS011;31720;52.638;9.216;2022-08-05T15:06:09;1.48;;;1.00;;
32032;SDS011;31720;52.638;9.216;2022-08-05T15:09:10;2.95;;;1.40;;
32032;SDS011;31720;52.638;9.216;2022-08-05T15:12:11;1.17;;;1.08;;
32032;SDS011;31720;52.638;9.216;2022-08-05T15:15:14;2.72;;;0.90;;
32032;SDS011;31720;52.638;9.216;2022-08-05T15:18:16;1.85;;;1.17;;
32032;SDS011;31720;52.638;9.216;2022-08-05T15:21:17;1.45;;;1.05;;
32032;SDS011;31720;52.638;9.216;2022-08-05T15:24:18;1.88;;;1.00;;
32032;SDS011;31720;52.638;9.216;2022-08-05T15:27:20;0.75;;;0.75;;
32032;SDS011;31720;52.638;9.216;2022-08-05T15:30:22;5.43;;;1.33;;
32032;SDS011;31720;52.638;9.216;2022-08-05T15:33:24;3.85;;;1.20;;
32032;SDS011;31720;52.638;9.216;2022-08-05T15:36:25;1.10;;;1.00;;
32032;SDS011;31720;52.638;9.216;2022-08-05T15:39:26;1.65;;;1.02;;
32032;SDS011;31720;52.638;9.216;2022-08-05T15:42:28;1.23;;;0.90;;
32032;SDS011;31720;52.638;9.216;2022-08-05T15:45:31;5.57;;;1.42;;
32032;SDS011;31720;52.638;9.216;2022-08-05T15:48:32;1.90;;;0.80;;
32032;SDS011;31720;52.638;9.216;2022-08-05T15:51:33;0.43;;;0.43;;
32032;SDS011;31720;52.638;9.216;2022-08-05T15:54:35;1.05;;;0.47;;
32032;SDS011;31720;52.638;9.216;2022-08-05T15:57:36;0.30;;;0.30;;
32032;SDS011;31720;52.638;9.216;2022-08-05T16:00:39;0.38;;;0.20;;
32032;SDS011;31720;52.638;9.216;2022-08-05T16:03:40;3.22;;;0.40;;
32032;SDS011;31720;52.638;9.216;2022-08-05T16:06:43;0.10;;;0.10;;
32032;SDS011;31720;52.638;9.216;2022-08-05T16:09:44;0.20;;;0.20;;
32032;SDS011;31720;52.638;9.216;2022-08-05T16:12:45;1.80;;;1.05;;
32032;SDS011;31720;52.638;9.216;2022-08-05T16:15:49;0.88;;;0.25;;
32032;SDS011;31720;52.638;9.216;2022-08-05T16:18:50;0.90;;;0.30;;
32032;SDS011;31720;52.638;9.216;2022-08-05T16:21:52;0.20;;;0.20;;
32032;SDS011;31720;52.638;9.216;2022-08-05T16:24:53;0.20;;;0.20;;
32032;SDS011;31720;52.638;9.216;2022-08-05T16:27:55;0.10;;;0.10;;
32032;SDS011;31720;52.638;9.216;2022-08-05T16:30:57;0.38;;;0.22;;
32032;SDS011;31720;52.638;9.216;2022-08-05T16:33:59;0.80;;;0.32;;
32032;SDS011;31720;52.638;9.216;2022-08-05T16:37:00;0.45;;;0.25;;
32032;SDS011;31720;52.638;9.216;2022-08-05T16:40:02;3.05;;;0.20;;
32032;SDS011;31720;52.638;9.216;2022-08-05T16:43:05;0.63;;;0.20;;
32032;SDS011;31720;52.638;9.216;2022-08-05T16:46:07;0.20;;;0.20;;
32032;SDS011;31720;52.638;9.216;2022-08-05T16:49:09;0.20;;;0.20;;
32032;SDS011;31720;52.638;9.216;2022-08-05T16:52:11;1.42;;;0.55;;
32032;SDS011;31720;52.638;9.216;2022-08-05T16:55:12;0.50;;;0.20;;
32032;SDS011;31720;52.638;9.216;2022-08-05T16:58:13;1.45;;;0.32;;
32032;SDS011;31720;52.638;9.216;2022-08-05T17:01:16;0.40;;;0.40;;
32032;SDS011;31720;52.638;9.216;2022-08-05T17:04:17;0.40;;;0.40;;
32032;SDS011;31720;52.638;9.216;2022-08-05T17:07:19;0.10;;;0.10;;
32032;SDS011;31720;52.638;9.216;2022-08-05T17:10:20;0.25;;;0.20;;
32032;SDS011;31720;52.638;9.216;2022-08-05T17:13:21;0.57;;;0.22;;
32032;SDS011;31720;52.638;9.216;2022-08-05T17:16:24;0.10;;;0.10;;
32032;SDS011;31720;52.638;9.216;2022-08-05T17:19:26;0.77;;;0.20;;
32032;SDS011;31720;52.638;9.216;2022-08-05T17:22:27;0.52;;;0.20;;
32032;SDS011;31720;52.638;9.216;2022-08-05T17:25:28;0.10;;;0.10;;
32032;SDS011;31720;52.638;9.216;2022-08-05T17:28:29;1.33;;;0.28;;
32032;SDS011;31720;52.638;9.216;2022-08-05T17:31:32;1.55;;;0.40;;
32032;SDS011;31720;52.638;9.216;2022-08-05T17:34:34;0.30;;;0.30;;
32032;SDS011;31720;52.638;9.216;2022-08-05T17:37:35;0.10;;;0.10;;
32032;SDS011;31720;52.638;9.216;2022-08-05T17:40:37;0.20;;;0.20;;
32032;SDS011;31720;52.638;9.216;2022-08-05T17:43:38;0.70;;;0.25;;
32032;SDS011;31720;52.638;9.216;2022-08-05T17:46:41;1.23;;;0.45;;
32032;SDS011;31720;52.638;9.216;2022-08-05T17:49:42;0.60;;;0.28;;
32032;SDS011;31720;52.638;9.216;2022-08-05T17:52:44;1.55;;;0.28;;
32032;SDS011;31720;52.638;9.216;2022-08-05T17:55:45;1.17;;;0.22;;
32032;SDS011;31720;52.638;9.216;2022-08-05T17:58:46;0.20;;;0.20;;
32032;SDS011;31720;52.638;9.216;2022-08-05T18:01:49;0.55;;;0.20;;
32032;SDS011;31720;52.638;9.216;2022-08-05T18:04:50;0.15;;;0.15;;
32032;SDS011;31720;52.638;9.216;2022-08-05T18:07:52;0.13;;;0.13;;
32032;SDS011;31720;52.638;9.216;2022-08-05T18:10:53;0.30;;;0.10;;
32032;SDS011;31720;52.638;9.216;2022-08-05T18:13:54;0.60;;;0.30;;
32032;SDS011;31720;52.638;9.216;2022-08-05T18:16:57;0.20;;;0.20;;
32032;SDS011;31720;52.638;9.216;2022-08-05T18:19:58;0.30;;;0.30;;
32032;SDS011;31720;52.638;9.216;2022-08-05T18:23:00;1.35;;;0.55;;
32032;SDS011;31720;52.638;9.216;2022-08-05T18:26:01;0.30;;;0.30;;
32032;SDS011;31720;52.638;9.216;2022-08-05T18:29:02;0.22;;;0.20;;